sensor_id;sensor_type;location;lat;lon;timestamp;temperature;humidity
12841;DHT22;6487;48.626;12.486;2022-11-15T00:01:23;4.80;99.90
12841;DHT22;6487;48.626;12.486;2022-11-15T00:03:51;4.80;99.90
12841;DHT22;6487;48.626;12.486;2022-11-15T00:06:19;4.80;99.90
12841;DHT22;6487;48.626;12.486;2022-11-15T00:08:48;4.70;99.90
12841;DHT22;6487;48.626;12.486;2022-11-15T00:11:16;4.60;99.90
12841;DHT22;6487;48.626;12.486;2022-11-15T00:13:46;4.70;99.90
12841;DHT22;6487;48.626;12.486;2022-11-15T00:16:14;4.70;99.90
12841;DHT22;6487;48.626;12.486;2022-11-15T00:18:43;4.70;99.90
12841;DHT22;6487;48.626;12.486;2022-11-15T00:21:16;4.70;99.90
12841;DHT22;6487;48.626;12.486;2022-11-15T00:23:45;4.80;99.90
12841;DHT22;6487;48.626;12.486;2022-11-15T00:26:14;4.70;99.90
12841;DHT22;6487;48.626;12.486;2022-11-15T00:28:43;4.50;99.90
12841;DHT22;6487;48.626;12.486;2022-11-15T00:31:14;4.60;99.90
12841;DHT22;6487;48.626;12.486;2022-11-15T00:33:43;4.50;99.90
12841;DHT22;6487;48.626;12.486;2022-11-15T00:36:12;4.50;99.90
12841;DHT22;6487;48.626;12.486;2022-11-15T00:38:41;4.50;99.90
12841;DHT22;6487;48.626;12.486;2022-11-15T00:41:09;4.50;99.90
12841;DHT22;6487;48.626;12.486;2022-11-15T00:43:37;4.50;99.90
12841;DHT22;6487;48.626;12.486;2022-11-15T00:46:07;4.50;99.90
12841;DHT22;6487;48.626;12.486;2022-11-15T00:48:37;4.50;99.90
12841;DHT22;6487;48.626;12.486;2022-11-15T00:51:06;4.50;99.90
12841;DHT22;6487;48.626;12.486;2022-11-15T00:53:34;4.30;99.90
12841;DHT22;6487;48.626;12.486;2022-11-15T00:56:03;4.40;99.90
12841;DHT22;6487;48.626;12.486;2022-11-15T00:58:31;4.30;99.90
12841;DHT22;6487;48.626;12.486;2022-11-15T01:01:06;4.40;99.90
12841;DHT22;6487;48.626;12.486;2022-11-15T01:03:37;4.40;99.90
12841;DHT22;6487;48.626;12.486;2022-11-15T01:06:06;4.20;99.90
12841;DHT22;6487;48.626;12.486;2022-11-15T01:08:35;4.30;99.90
12841;DHT22;6487;48.626;12.486;2022-11-15T01:11:06;4.30;99.90
12841;DHT22;6487;48.626;12.486;2022-11-15T01:13:36;4.20;99.90
12841;DHT22;6487;48.626;12.486;2022-11-15T01:16:07;4.30;99.90
12841;DHT22;6487;48.626;12.486;2022-11-15T01:18:38;4.20;99.90
12841;DHT22;6487;48.626;12.486;2022-11-15T01:21:08;4.20;99.90
12841;DHT22;6487;48.626;12.486;2022-11-15T01:23:37;4.20;99.90
12841;DHT22;6487;48.626;12.486;2022-11-15T01:26:09;4.20;99.90
12841;DHT22;6487;48.626;12.486;2022-11-15T01:28:40;4.30;99.90
12841;DHT22;6487;48.626;12.486;2022-11-15T01:31:12;4.20;99.90
12841;DHT22;6487;48.626;12.486;2022-11-15T01:33:44;4.20;99.90
12841;DHT22;6487;48.626;12.486;2022-11-15T01:36:15;4.30;99.90
12841;DHT22;6487;48.626;12.486;2022-11-15T01:38:45;4.20;99.90
12841;DHT22;6487;48.626;12.486;2022-11-15T01:41:19;4.20;99.90
12841;DHT22;6487;48.626;12.486;2022-11-15T01:43:52;4.30;99.90
12841;DHT22;6487;48.626;12.486;2022-11-15T01:46:29;4.20;99.90
12841;DHT22;6487;48.626;12.486;2022-11-15T01:49:02;4.10;99.90
12841;DHT22;6487;48.626;12.486;2022-11-15T01:51:33;4.10;99.90
12841;DHT22;6487;48.626;12.486;2022-11-15T01:54:05;4.10;99.90
12841;DHT22;6487;48.626;12.486;2022-11-15T01:56:37;4.10;99.90
12841;DHT22;6487;48.626;12.486;2022-11-15T01:59:10;4.10;99.90
12841;DHT22;6487;48.626;12.486;2022-11-15T02:01:39;4.10;99.90
12841;DHT22;6487;48.626;12.486;2022-11-15T02:04:12;4.10;99.90
12841;DHT22;6487;48.626;12.486;2022-11-15T02:06:42;4.10;99.90
12841;DHT22;6487;48.626;12.486;2022-11-15T02:09:12;4.10;99.90
12841;DHT22;6487;48.626;12.486;2022-11-15T02:11:41;4.10;99.90
12841;DHT22;6487;48.626;12.486;2022-11-15T02:14:11;4.10;99.90
12841;DHT22;6487;48.626;12.486;2022-11-15T02:16:46;4.00;99.90
12841;DHT22;6487;48.626;12.486;2022-11-15T02:19:34;4.00;99.90
12841;DHT22;6487;48.626;12.486;2022-11-15T02:22:21;4.00;99.90
12841;DHT22;6487;48.626;12.486;2022-11-15T02:25:08;3.80;99.90
12841;DHT22;6487;48.626;12.486;2022-11-15T02:31:04;3.90;99.90
12841;DHT22;6487;48.626;12.486;2022-11-15T02:33:42;3.90;99.90
12841;DHT22;6487;48.626;12.486;2022-11-15T02:36:18;3.90;99.90
12841;DHT22;6487;48.626;12.486;2022-11-15T02:38:59;3.90;99.90
12841;DHT22;6487;48.626;12.486;2022-11-15T02:41:35;3.90;99.90
12841;DHT22;6487;48.626;12.486;2022-11-15T02:44:14;3.90;99.90
12841;DHT22;6487;48.626;12.486;2022-11-15T02:46:48;3.90;99.90
12841;DHT22;6487;48.626;12.486;2022-11-15T02:49:38;4.00;99.90
12841;DHT22;6487;48.626;12.486;2022-11-15T02:52:07;3.90;99.90
12841;DHT22;6487;48.626;12.486;2022-11-15T02:54:35;3.90;99.90
12841;DHT22;6487;48.626;12.486;2022-11-15T02:57:07;3.70;99.90
12841;DHT22;6487;48.626;12.486;2022-11-15T03:00:04;3.60;99.90
12841;DHT22;6487;48.626;12.486;2022-11-15T03:02:47;3.70;99.90
12841;DHT22;6487;48.626;12.486;2022-11-15T03:05:29;3.70;99.90
12841;DHT22;6487;48.626;12.486;2022-11-15T03:08:08;3.70;99.90
12841;DHT22;6487;48.626;12.486;2022-11-15T03:10:45;3.70;99.90
12841;DHT22;6487;48.626;12.486;2022-11-15T03:13:22;3.60;99.90
12841;DHT22;6487;48.626;12.486;2022-11-15T03:16:01;3.70;99.90
12841;DHT22;6487;48.626;12.486;2022-11-15T03:18:35;3.70;99.90
12841;DHT22;6487;48.626;12.486;2022-11-15T03:21:08;3.60;99.90
12841;DHT22;6487;48.626;12.486;2022-11-15T03:23:37;3.60;99.90
12841;DHT22;6487;48.626;12.486;2022-11-15T03:26:09;3.60;99.90
12841;DHT22;6487;48.626;12.486;2022-11-15T03:28:45;3.50;99.90
12841;DHT22;6487;48.626;12.486;2022-11-15T03:31:17;3.60;99.90
12841;DHT22;6487;48.626;12.486;2022-11-15T03:34:08;3.70;99.90
12841;DHT22;6487;48.626;12.486;2022-11-15T03:36:39;3.50;99.90
12841;DHT22;6487;48.626;12.486;2022-11-15T03:39:08;3.50;99.90
12841;DHT22;6487;48.626;12.486;2022-11-15T03:41:47;3.50;99.90
12841;DHT22;6487;48.626;12.486;2022-11-15T03:44:26;3.50;99.90
12841;DHT22;6487;48.626;12.486;2022-11-15T03:49:45;3.50;99.90
12841;DHT22;6487;48.626;12.486;2022-11-15T03:52:17;3.50;99.90
12841;DHT22;6487;48.626;12.486;2022-11-15T03:54:52;3.50;99.90
12841;DHT22;6487;48.626;12.486;2022-11-15T03:57:21;3.40;99.90
12841;DHT22;6487;48.626;12.486;2022-11-15T03:59:50;3.40;99.90
12841;DHT22;6487;48.626;12.486;2022-11-15T04:02:18;3.40;99.90
12841;DHT22;6487;48.626;12.486;2022-11-15T04:04:48;3.40;99.90
12841;DHT22;6487;48.626;12.486;2022-11-15T04:07:16;3.40;99.90
12841;DHT22;6487;48.626;12.486;2022-11-15T04:09:45;3.40;99.90
12841;DHT22;6487;48.626;12.486;2022-11-15T04:12:34;3.30;99.90
12841;DHT22;6487;48.626;12.486;2022-11-15T04:15:05;3.30;99.90
12841;DHT22;6487;48.626;12.486;2022-11-15T04:17:36;3.30;99.90
12841;DHT22;6487;48.626;12.486;2022-11-15T04:20:10;3.40;99.90
12841;DHT22;6487;48.626;12.486;2022-11-15T04:22:58;3.30;99.90
12841;DHT22;6487;48.626;12.486;2022-11-15T04:25:45;3.30;99.90
12841;DHT22;6487;48.626;12.486;2022-11-15T04:28:15;3.20;99.90
12841;DHT22;6487;48.626;12.486;2022-11-15T04:30:43;3.20;99.90
12841;DHT22;6487;48.626;12.486;2022-11-15T04:33:12;3.10;99.90
12841;DHT22;6487;48.626;12.486;2022-11-15T04:35:42;3.20;99.90
12841;DHT22;6487;48.626;12.486;2022-11-15T04:38:30;3.10;99.90
12841;DHT22;6487;48.626;12.486;2022-11-15T04:40:58;3.20;99.90
12841;DHT22;6487;48.626;12.486;2022-11-15T04:43:26;3.10;99.90
12841;DHT22;6487;48.626;12.486;2022-11-15T04:45:55;3.10;99.90
12841;DHT22;6487;48.626;12.486;2022-11-15T04:48:23;3.10;99.90
12841;DHT22;6487;48.626;12.486;2022-11-15T04:50:53;3.10;99.90
12841;DHT22;6487;48.626;12.486;2022-11-15T04:53:21;3.10;99.90
12841;DHT22;6487;48.626;12.486;2022-11-15T04:55:50;3.10;99.90
12841;DHT22;6487;48.626;12.486;2022-11-15T04:58:18;3.10;99.90
12841;DHT22;6487;48.626;12.486;2022-11-15T05:00:46;3.10;99.90
12841;DHT22;6487;48.626;12.486;2022-11-15T05:03:14;3.10;99.90
12841;DHT22;6487;48.626;12.486;2022-11-15T05:06:02;3.00;99.90
12841;DHT22;6487;48.626;12.486;2022-11-15T05:08:31;2.90;99.90
12841;DHT22;6487;48.626;12.486;2022-11-15T05:10:59;3.00;99.90
12841;DHT22;6487;48.626;12.486;2022-11-15T05:13:27;2.90;99.90
12841;DHT22;6487;48.626;12.486;2022-11-15T05:15:56;2.90;99.90
12841;DHT22;6487;48.626;12.486;2022-11-15T05:18:24;3.00;99.90
12841;DHT22;6487;48.626;12.486;2022-11-15T05:20:53;3.00;99.90
12841;DHT22;6487;48.626;12.486;2022-11-15T05:23:22;3.00;99.90
12841;DHT22;6487;48.626;12.486;2022-11-15T05:25:50;3.00;99.90
12841;DHT22;6487;48.626;12.486;2022-11-15T05:28:19;3.00;99.90
12841;DHT22;6487;48.626;12.486;2022-11-15T05:30:47;3.00;99.90
12841;DHT22;6487;48.626;12.486;2022-11-15T05:33:15;3.00;99.90
12841;DHT22;6487;48.626;12.486;2022-11-15T05:35:48;3.00;99.90
12841;DHT22;6487;48.626;12.486;2022-11-15T05:38:18;2.90;99.90
12841;DHT22;6487;48.626;12.486;2022-11-15T05:40:48;2.90;99.90
12841;DHT22;6487;48.626;12.486;2022-11-15T05:43:17;2.90;99.90
12841;DHT22;6487;48.626;12.486;2022-11-15T05:45:45;2.90;99.90
12841;DHT22;6487;48.626;12.486;2022-11-15T05:48:14;3.00;99.90
12841;DHT22;6487;48.626;12.486;2022-11-15T05:50:44;3.00;99.90
12841;DHT22;6487;48.626;12.486;2022-11-15T05:53:17;2.90;99.90
12841;DHT22;6487;48.626;12.486;2022-11-15T05:55:48;3.00;99.90
12841;DHT22;6487;48.626;12.486;2022-11-15T05:58:17;2.90;99.90
12841;DHT22;6487;48.626;12.486;2022-11-15T06:00:46;2.90;99.90
12841;DHT22;6487;48.626;12.486;2022-11-15T06:03:14;2.90;99.90
12841;DHT22;6487;48.626;12.486;2022-11-15T06:05:42;2.90;99.90
12841;DHT22;6487;48.626;12.486;2022-11-15T06:08:11;2.80;99.90
12841;DHT22;6487;48.626;12.486;2022-11-15T06:10:39;2.90;99.90
12841;DHT22;6487;48.626;12.486;2022-11-15T06:13:09;2.90;99.90
12841;DHT22;6487;48.626;12.486;2022-11-15T06:15:37;2.80;99.90
12841;DHT22;6487;48.626;12.486;2022-11-15T06:18:05;2.80;99.90
12841;DHT22;6487;48.626;12.486;2022-11-15T06:20:34;2.80;99.90
12841;DHT22;6487;48.626;12.486;2022-11-15T06:23:03;2.70;99.90
12841;DHT22;6487;48.626;12.486;2022-11-15T06:25:32;2.70;99.90
12841;DHT22;6487;48.626;12.486;2022-11-15T06:28:00;2.90;99.90
12841;DHT22;6487;48.626;12.486;2022-11-15T06:30:30;2.80;99.90
12841;DHT22;6487;48.626;12.486;2022-11-15T06:32:59;2.70;99.90
12841;DHT22;6487;48.626;12.486;2022-11-15T06:35:29;2.80;99.90
12841;DHT22;6487;48.626;12.486;2022-11-15T06:38:02;2.80;99.90
12841;DHT22;6487;48.626;12.486;2022-11-15T06:40:33;2.70;99.90
12841;DHT22;6487;48.626;12.486;2022-11-15T06:43:03;2.70;99.90
12841;DHT22;6487;48.626;12.486;2022-11-15T06:45:33;2.60;99.90
12841;DHT22;6487;48.626;12.486;2022-11-15T06:48:02;2.60;99.90
12841;DHT22;6487;48.626;12.486;2022-11-15T06:50:30;2.50;99.90
12841;DHT22;6487;48.626;12.486;2022-11-15T06:53:01;2.50;99.90
12841;DHT22;6487;48.626;12.486;2022-11-15T06:55:30;2.50;99.90
12841;DHT22;6487;48.626;12.486;2022-11-15T06:57:58;2.60;99.90
12841;DHT22;6487;48.626;12.486;2022-11-15T07:00:27;2.50;99.90
12841;DHT22;6487;48.626;12.486;2022-11-15T07:02:59;2.60;99.90
12841;DHT22;6487;48.626;12.486;2022-11-15T07:05:28;2.70;99.90
12841;DHT22;6487;48.626;12.486;2022-11-15T07:07:57;2.80;99.90
12841;DHT22;6487;48.626;12.486;2022-11-15T07:10:26;2.80;99.90
12841;DHT22;6487;48.626;12.486;2022-11-15T07:12:56;3.00;99.90
12841;DHT22;6487;48.626;12.486;2022-11-15T07:15:25;3.20;99.90
12841;DHT22;6487;48.626;12.486;2022-11-15T07:17:53;3.30;99.90
12841;DHT22;6487;48.626;12.486;2022-11-15T07:20:23;3.50;99.90
12841;DHT22;6487;48.626;12.486;2022-11-15T07:22:59;3.60;99.90
12841;DHT22;6487;48.626;12.486;2022-11-15T07:25:28;3.90;99.90
12841;DHT22;6487;48.626;12.486;2022-11-15T07:27:57;4.10;99.90
12841;DHT22;6487;48.626;12.486;2022-11-15T07:30:27;4.20;99.90
12841;DHT22;6487;48.626;12.486;2022-11-15T07:32:56;4.20;99.90
12841;DHT22;6487;48.626;12.486;2022-11-15T07:35:27;4.50;99.90
12841;DHT22;6487;48.626;12.486;2022-11-15T07:37:58;4.60;99.90
12841;DHT22;6487;48.626;12.486;2022-11-15T07:40:30;4.70;99.90
12841;DHT22;6487;48.626;12.486;2022-11-15T07:43:00;4.90;99.90
12841;DHT22;6487;48.626;12.486;2022-11-15T07:45:29;5.00;99.90
12841;DHT22;6487;48.626;12.486;2022-11-15T07:47:57;5.20;99.90
12841;DHT22;6487;48.626;12.486;2022-11-15T07:50:27;5.50;99.90
12841;DHT22;6487;48.626;12.486;2022-11-15T07:52:57;5.60;99.90
12841;DHT22;6487;48.626;12.486;2022-11-15T07:55:28;5.90;99.90
12841;DHT22;6487;48.626;12.486;2022-11-15T07:58:01;6.00;99.90
12841;DHT22;6487;48.626;12.486;2022-11-15T08:00:30;6.20;99.90
12841;DHT22;6487;48.626;12.486;2022-11-15T08:03:02;6.30;99.90
12841;DHT22;6487;48.626;12.486;2022-11-15T08:05:33;6.50;99.90
12841;DHT22;6487;48.626;12.486;2022-11-15T08:08:02;6.70;99.90
12841;DHT22;6487;48.626;12.486;2022-11-15T08:10:31;6.70;99.90
12841;DHT22;6487;48.626;12.486;2022-11-15T08:13:09;6.80;99.90
12841;DHT22;6487;48.626;12.486;2022-11-15T08:15:38;7.00;99.90
12841;DHT22;6487;48.626;12.486;2022-11-15T08:18:10;7.20;99.90
12841;DHT22;6487;48.626;12.486;2022-11-15T08:20:41;7.30;99.90
12841;DHT22;6487;48.626;12.486;2022-11-15T08:23:11;7.50;99.90
12841;DHT22;6487;48.626;12.486;2022-11-15T08:25:40;7.60;99.90
12841;DHT22;6487;48.626;12.486;2022-11-15T08:28:10;7.90;99.90
12841;DHT22;6487;48.626;12.486;2022-11-15T08:30:39;8.00;99.90
12841;DHT22;6487;48.626;12.486;2022-11-15T08:33:11;8.10;99.90
12841;DHT22;6487;48.626;12.486;2022-11-15T08:35:42;8.30;99.90
12841;DHT22;6487;48.626;12.486;2022-11-15T08:38:11;8.40;99.90
12841;DHT22;6487;48.626;12.486;2022-11-15T08:40:39;8.60;99.90
12841;DHT22;6487;48.626;12.486;2022-11-15T08:43:08;8.80;99.90
12841;DHT22;6487;48.626;12.486;2022-11-15T08:45:36;8.90;99.90
12841;DHT22;6487;48.626;12.486;2022-11-15T08:48:04;9.10;99.90
12841;DHT22;6487;48.626;12.486;2022-11-15T08:50:33;9.20;99.90
12841;DHT22;6487;48.626;12.486;2022-11-15T08:53:06;9.40;99.90
12841;DHT22;6487;48.626;12.486;2022-11-15T08:55:36;9.60;99.90
12841;DHT22;6487;48.626;12.486;2022-11-15T08:58:05;9.70;99.90
12841;DHT22;6487;48.626;12.486;2022-11-15T09:00:34;9.80;99.90
12841;DHT22;6487;48.626;12.486;2022-11-15T09:03:03;10.00;99.90
12841;DHT22;6487;48.626;12.486;2022-11-15T09:05:32;10.20;99.90
12841;DHT22;6487;48.626;12.486;2022-11-15T09:08:05;10.20;99.90
12841;DHT22;6487;48.626;12.486;2022-11-15T09:10:53;10.40;99.90
12841;DHT22;6487;48.626;12.486;2022-11-15T09:13:22;10.50;99.90
12841;DHT22;6487;48.626;12.486;2022-11-15T09:15:50;10.60;99.90
12841;DHT22;6487;48.626;12.486;2022-11-15T09:18:18;10.70;99.90
12841;DHT22;6487;48.626;12.486;2022-11-15T09:20:49;10.80;99.90
12841;DHT22;6487;48.626;12.486;2022-11-15T09:23:18;10.90;99.90
12841;DHT22;6487;48.626;12.486;2022-11-15T09:25:47;11.10;99.90
12841;DHT22;6487;48.626;12.486;2022-11-15T09:28:15;11.30;99.90
12841;DHT22;6487;48.626;12.486;2022-11-15T09:30:44;11.30;99.90
12841;DHT22;6487;48.626;12.486;2022-11-15T09:33:12;11.50;99.90
12841;DHT22;6487;48.626;12.486;2022-11-15T09:35:41;11.70;99.90
12841;DHT22;6487;48.626;12.486;2022-11-15T09:38:09;11.90;99.90
12841;DHT22;6487;48.626;12.486;2022-11-15T09:40:39;12.00;99.90
12841;DHT22;6487;48.626;12.486;2022-11-15T09:43:30;12.20;99.90
12841;DHT22;6487;48.626;12.486;2022-11-15T09:46:09;12.40;99.90
12841;DHT22;6487;48.626;12.486;2022-11-15T09:48:51;12.50;99.90
12841;DHT22;6487;48.626;12.486;2022-11-15T09:51:27;12.60;99.90
12841;DHT22;6487;48.626;12.486;2022-11-15T09:54:08;12.70;99.90
12841;DHT22;6487;48.626;12.486;2022-11-15T09:57:13;12.90;99.90
12841;DHT22;6487;48.626;12.486;2022-11-15T09:59:55;13.00;99.90
12841;DHT22;6487;48.626;12.486;2022-11-15T10:03:00;13.10;99.90
12841;DHT22;6487;48.626;12.486;2022-11-15T10:05:39;13.30;99.90
12841;DHT22;6487;48.626;12.486;2022-11-15T10:11:17;13.70;99.90
12841;DHT22;6487;48.626;12.486;2022-11-15T10:14:11;13.70;99.90
12841;DHT22;6487;48.626;12.486;2022-11-15T10:20:03;14.10;99.80
12841;DHT22;6487;48.626;12.486;2022-11-15T10:22:40;14.20;99.90
12841;DHT22;6487;48.626;12.486;2022-11-15T10:25:18;14.50;99.90
12841;DHT22;6487;48.626;12.486;2022-11-15T10:27:55;14.60;99.50
12841;DHT22;6487;48.626;12.486;2022-11-15T10:30:33;14.60;99.60
12841;DHT22;6487;48.626;12.486;2022-11-15T10:33:17;14.50;99.80
12841;DHT22;6487;48.626;12.486;2022-11-15T10:36:19;14.70;99.80
12841;DHT22;6487;48.626;12.486;2022-11-15T10:38:54;14.90;99.70
12841;DHT22;6487;48.626;12.486;2022-11-15T10:41:34;15.10;99.70
12841;DHT22;6487;48.626;12.486;2022-11-15T10:44:23;15.30;99.80
12841;DHT22;6487;48.626;12.486;2022-11-15T10:47:25;15.40;99.10
12841;DHT22;6487;48.626;12.486;2022-11-15T10:50:02;15.40;99.00
12841;DHT22;6487;48.626;12.486;2022-11-15T10:52:34;15.20;99.30
12841;DHT22;6487;48.626;12.486;2022-11-15T10:55:20;15.10;98.80
12841;DHT22;6487;48.626;12.486;2022-11-15T10:57:52;15.10;99.10
12841;DHT22;6487;48.626;12.486;2022-11-15T11:00:31;15.00;99.30
12841;DHT22;6487;48.626;12.486;2022-11-15T11:03:04;15.10;99.20
12841;DHT22;6487;48.626;12.486;2022-11-15T11:05:36;15.10;99.30
12841;DHT22;6487;48.626;12.486;2022-11-15T11:08:21;15.30;99.30
12841;DHT22;6487;48.626;12.486;2022-11-15T11:10:55;15.40;99.30
12841;DHT22;6487;48.626;12.486;2022-11-15T11:13:30;15.50;99.00
12841;DHT22;6487;48.626;12.486;2022-11-15T11:16:10;15.50;99.50
12841;DHT22;6487;48.626;12.486;2022-11-15T11:19:28;15.50;99.00
12841;DHT22;6487;48.626;12.486;2022-11-15T11:22:09;15.50;98.80
12841;DHT22;6487;48.626;12.486;2022-11-15T11:24:47;15.20;99.40
12841;DHT22;6487;48.626;12.486;2022-11-15T11:27:36;15.30;99.30
12841;DHT22;6487;48.626;12.486;2022-11-15T11:30:14;15.30;98.80
12841;DHT22;6487;48.626;12.486;2022-11-15T11:33:05;15.00;99.20
12841;DHT22;6487;48.626;12.486;2022-11-15T11:35:48;14.90;99.30
12841;DHT22;6487;48.626;12.486;2022-11-15T11:38:33;14.90;98.80
12841;DHT22;6487;48.626;12.486;2022-11-15T11:41:14;14.90;98.80
12841;DHT22;6487;48.626;12.486;2022-11-15T11:43:56;14.80;98.30
12841;DHT22;6487;48.626;12.486;2022-11-15T11:46:48;14.90;98.50
12841;DHT22;6487;48.626;12.486;2022-11-15T11:49:25;14.70;98.40
12841;DHT22;6487;48.626;12.486;2022-11-15T11:52:02;14.70;98.90
12841;DHT22;6487;48.626;12.486;2022-11-15T11:54:37;14.60;98.90
12841;DHT22;6487;48.626;12.486;2022-11-15T11:57:27;14.50;98.90
12841;DHT22;6487;48.626;12.486;2022-11-15T12:00:03;14.60;99.10
12841;DHT22;6487;48.626;12.486;2022-11-15T12:02:41;14.60;98.80
12841;DHT22;6487;48.626;12.486;2022-11-15T12:05:15;14.50;99.10
12841;DHT22;6487;48.626;12.486;2022-11-15T12:07:47;14.50;99.20
12841;DHT22;6487;48.626;12.486;2022-11-15T12:10:22;14.40;99.30
12841;DHT22;6487;48.626;12.486;2022-11-15T12:12:58;14.30;99.70
12841;DHT22;6487;48.626;12.486;2022-11-15T12:15:35;14.20;99.50
12841;DHT22;6487;48.626;12.486;2022-11-15T12:18:13;14.10;99.70
12841;DHT22;6487;48.626;12.486;2022-11-15T12:20:51;14.20;99.80
12841;DHT22;6487;48.626;12.486;2022-11-15T12:23:26;14.10;99.60
12841;DHT22;6487;48.626;12.486;2022-11-15T12:26:00;14.00;99.90
12841;DHT22;6487;48.626;12.486;2022-11-15T12:28:37;13.90;99.90
12841;DHT22;6487;48.626;12.486;2022-11-15T12:31:31;13.90;99.90
12841;DHT22;6487;48.626;12.486;2022-11-15T12:34:15;14.00;99.60
12841;DHT22;6487;48.626;12.486;2022-11-15T12:36:58;13.90;99.90
12841;DHT22;6487;48.626;12.486;2022-11-15T12:42:59;13.80;99.90
12841;DHT22;6487;48.626;12.486;2022-11-15T12:45:43;13.70;99.90
12841;DHT22;6487;48.626;12.486;2022-11-15T12:58:26;13.60;99.90
12841;DHT22;6487;48.626;12.486;2022-11-15T13:00:56;13.50;99.90
12841;DHT22;6487;48.626;12.486;2022-11-15T13:03:27;13.50;99.90
12841;DHT22;6487;48.626;12.486;2022-11-15T13:06:05;13.50;99.90
12841;DHT22;6487;48.626;12.486;2022-11-15T13:08:40;13.40;99.90
12841;DHT22;6487;48.626;12.486;2022-11-15T13:11:49;13.40;99.90
12841;DHT22;6487;48.626;12.486;2022-11-15T13:14:47;13.30;99.90
12841;DHT22;6487;48.626;12.486;2022-11-15T13:17:27;13.30;99.90
12841;DHT22;6487;48.626;12.486;2022-11-15T13:20:17;13.20;99.90
12841;DHT22;6487;48.626;12.486;2022-11-15T13:22:51;13.20;99.90
12841;DHT22;6487;48.626;12.486;2022-11-15T13:28:35;13.10;99.90
12841;DHT22;6487;48.626;12.486;2022-11-15T13:31:21;13.20;99.90
12841;DHT22;6487;48.626;12.486;2022-11-15T13:33:56;13.00;99.90
12841;DHT22;6487;48.626;12.486;2022-11-15T13:36:28;12.90;99.90
12841;DHT22;6487;48.626;12.486;2022-11-15T13:39:01;12.90;99.90
12841;DHT22;6487;48.626;12.486;2022-11-15T13:41:32;12.90;99.90
12841;DHT22;6487;48.626;12.486;2022-11-15T13:44:04;12.90;99.90
12841;DHT22;6487;48.626;12.486;2022-11-15T13:46:47;12.90;99.90
12841;DHT22;6487;48.626;12.486;2022-11-15T13:49:15;12.90;99.90
12841;DHT22;6487;48.626;12.486;2022-11-15T13:51:46;12.80;99.90
12841;DHT22;6487;48.626;12.486;2022-11-15T13:54:19;12.70;99.90
12841;DHT22;6487;48.626;12.486;2022-11-15T13:56:52;12.70;99.90
12841;DHT22;6487;48.626;12.486;2022-11-15T13:59:26;12.70;99.90
12841;DHT22;6487;48.626;12.486;2022-11-15T14:01:58;12.60;99.90
12841;DHT22;6487;48.626;12.486;2022-11-15T14:04:30;12.60;99.90
12841;DHT22;6487;48.626;12.486;2022-11-15T14:07:01;12.40;99.90
12841;DHT22;6487;48.626;12.486;2022-11-15T14:09:33;12.50;99.90
12841;DHT22;6487;48.626;12.486;2022-11-15T14:12:26;12.50;99.90
12841;DHT22;6487;48.626;12.486;2022-11-15T14:15:17;12.40;99.90
12841;DHT22;6487;48.626;12.486;2022-11-15T14:17:47;12.40;99.90
12841;DHT22;6487;48.626;12.486;2022-11-15T14:20:25;12.40;99.90
12841;DHT22;6487;48.626;12.486;2022-11-15T14:22:56;12.30;99.90
12841;DHT22;6487;48.626;12.486;2022-11-15T14:25:26;12.30;99.90
12841;DHT22;6487;48.626;12.486;2022-11-15T14:28:16;12.20;99.90
12841;DHT22;6487;48.626;12.486;2022-11-15T14:30:59;12.20;99.90
12841;DHT22;6487;48.626;12.486;2022-11-15T14:33:29;12.10;99.90
12841;DHT22;6487;48.626;12.486;2022-11-15T14:36:03;12.10;99.90
12841;DHT22;6487;48.626;12.486;2022-11-15T14:38:33;12.10;99.90
12841;DHT22;6487;48.626;12.486;2022-11-15T14:41:02;12.00;99.90
12841;DHT22;6487;48.626;12.486;2022-11-15T14:43:30;11.90;99.90
12841;DHT22;6487;48.626;12.486;2022-11-15T14:46:00;11.90;99.90
12841;DHT22;6487;48.626;12.486;2022-11-15T14:48:28;11.90;99.90
12841;DHT22;6487;48.626;12.486;2022-11-15T14:50:57;11.80;99.90
12841;DHT22;6487;48.626;12.486;2022-11-15T14:53:26;11.70;99.90
12841;DHT22;6487;48.626;12.486;2022-11-15T14:55:54;11.70;99.90
12841;DHT22;6487;48.626;12.486;2022-11-15T14:58:23;11.70;99.90
12841;DHT22;6487;48.626;12.486;2022-11-15T15:00:51;11.70;99.90
12841;DHT22;6487;48.626;12.486;2022-11-15T15:03:21;11.70;99.90
12841;DHT22;6487;48.626;12.486;2022-11-15T15:05:49;11.60;99.90
12841;DHT22;6487;48.626;12.486;2022-11-15T15:08:17;11.60;99.90
12841;DHT22;6487;48.626;12.486;2022-11-15T15:10:46;11.50;99.90
12841;DHT22;6487;48.626;12.486;2022-11-15T15:13:17;11.40;99.90
12841;DHT22;6487;48.626;12.486;2022-11-15T15:15:48;11.40;99.90
12841;DHT22;6487;48.626;12.486;2022-11-15T15:18:17;11.30;99.90
12841;DHT22;6487;48.626;12.486;2022-11-15T15:20:54;11.30;99.90
12841;DHT22;6487;48.626;12.486;2022-11-15T15:23:26;11.30;99.90
12841;DHT22;6487;48.626;12.486;2022-11-15T15:25:57;11.20;99.90
12841;DHT22;6487;48.626;12.486;2022-11-15T15:28:26;11.20;99.90
12841;DHT22;6487;48.626;12.486;2022-11-15T15:31:00;11.10;99.90
12841;DHT22;6487;48.626;12.486;2022-11-15T15:33:28;10.90;99.90
12841;DHT22;6487;48.626;12.486;2022-11-15T15:35:58;10.90;99.90
12841;DHT22;6487;48.626;12.486;2022-11-15T15:38:27;10.80;99.90
12841;DHT22;6487;48.626;12.486;2022-11-15T15:40:56;10.70;99.90
12841;DHT22;6487;48.626;12.486;2022-11-15T15:43:26;10.60;99.90
12841;DHT22;6487;48.626;12.486;2022-11-15T15:45:54;10.50;99.90
12841;DHT22;6487;48.626;12.486;2022-11-15T15:48:22;10.40;99.90
12841;DHT22;6487;48.626;12.486;2022-11-15T15:50:51;10.40;99.90
12841;DHT22;6487;48.626;12.486;2022-11-15T15:53:21;10.40;99.90
12841;DHT22;6487;48.626;12.486;2022-11-15T15:55:49;10.30;99.90
12841;DHT22;6487;48.626;12.486;2022-11-15T15:58:18;10.20;99.90
12841;DHT22;6487;48.626;12.486;2022-11-15T16:00:46;10.20;99.90
12841;DHT22;6487;48.626;12.486;2022-11-15T16:03:15;10.20;99.90
12841;DHT22;6487;48.626;12.486;2022-11-15T16:05:43;10.10;99.90
12841;DHT22;6487;48.626;12.486;2022-11-15T16:08:17;10.10;99.90
12841;DHT22;6487;48.626;12.486;2022-11-15T16:10:48;10.00;99.90
12841;DHT22;6487;48.626;12.486;2022-11-15T16:13:16;9.80;99.90
12841;DHT22;6487;48.626;12.486;2022-11-15T16:15:47;9.80;99.90
12841;DHT22;6487;48.626;12.486;2022-11-15T16:18:18;9.70;99.90
12841;DHT22;6487;48.626;12.486;2022-11-15T16:20:48;9.70;99.90
12841;DHT22;6487;48.626;12.486;2022-11-15T16:23:19;9.60;99.90
12841;DHT22;6487;48.626;12.486;2022-11-15T16:25:52;9.60;99.90
12841;DHT22;6487;48.626;12.486;2022-11-15T16:28:24;9.50;99.90
12841;DHT22;6487;48.626;12.486;2022-11-15T16:31:00;9.40;99.90
12841;DHT22;6487;48.626;12.486;2022-11-15T16:33:30;9.40;99.90
12841;DHT22;6487;48.626;12.486;2022-11-15T16:36:00;9.30;99.90
12841;DHT22;6487;48.626;12.486;2022-11-15T16:38:28;9.30;99.90
12841;DHT22;6487;48.626;12.486;2022-11-15T16:40:59;9.20;99.90
12841;DHT22;6487;48.626;12.486;2022-11-15T16:43:28;9.10;99.90
12841;DHT22;6487;48.626;12.486;2022-11-15T16:45:56;9.00;99.90
12841;DHT22;6487;48.626;12.486;2022-11-15T16:48:26;9.00;99.90